Tignish, Canada
Current Conditions -  °F | °C
As of 4:00 AM on Sunday 21 Dec 2014 (Local Time) from CYYG Reporting Station
Overcast Overcast  
Wind Chill: 23°   Ceiling: 2100
Heat Index: 30°   Visibility: 15mi
Dew Point: 23°   Wind: 7mph
Humidity: 75%   Direction: 60°ENE
Pressure: 30.36"   Gusts: NA
Location:  46.95°N, 64.03°W
Report Text: CYYG 210800Z 06006KT 15SM OVC021 M01/M05 A3036 RMK SC8 SLP282
Loading
Personal Weather Stations






























Interactive Weather Map New forecast layout! Learn more

10-Day Weather Forecast

Advertisements
Track Severe Weather on mobile